Time;durP1;ratioP1;P1;durP2;ratioP2;P2;SDS_P1;SDS_P2;PMS_P1;PMS_P2;Temp;Humidity;BMP_temperature;BMP_pressure;BME280_temperature;BME280_humidity;BME280_pressure;Samples;Min_cycle;Max_cycle;Signal;HPM_P1;HPM_P2
2021/04/26 00:00:36;;;;;;;3.75;0.95;;;7.50;51.30;;;;;;4958399;28;20027;-65
2021/04/26 00:03:02;;;;;;;4.13;0.80;;;7.50;51.20;;;;;;4950071;28;20121;-65
2021/04/26 00:05:28;;;;;;;3.55;1.00;;;7.50;50.90;;;;;;4957894;28;20385;-65
2021/04/26 00:07:55;;;;;;;1.75;0.68;;;7.50;51.50;;;;;;4972175;28;20032;-66
2021/04/26 00:10:22;;;;;;;1.95;0.60;;;7.50;51.20;;;;;;4972043;28;20054;-65
2021/04/26 00:12:48;;;;;;;1.67;0.68;;;7.50;51.70;;;;;;4958500;28;20031;-65
2021/04/26 00:15:23;;;;;;;1.27;0.65;;;7.50;52.00;;;;;;4955573;28;20034;-65
2021/04/26 00:17:49;;;;;;;5.18;0.95;;;7.50;52.50;;;;;;4958249;28;20056;-65
2021/04/26 00:20:16;;;;;;;2.40;0.75;;;7.50;52.20;;;;;;4947520;28;20043;-64
2021/04/26 00:22:42;;;;;;;2.00;0.80;;;7.40;52.10;;;;;;4956057;28;20047;-66
2021/04/26 00:25:10;;;;;;;2.47;0.77;;;7.40;52.80;;;;;;4955642;28;20091;-65
2021/04/26 00:27:37;;;;;;;2.10;0.80;;;7.40;53.10;;;;;;4954825;28;20073;-66
2021/04/26 00:30:10;;;;;;;2.08;0.65;;;7.40;53.20;;;;;;4952071;28;20031;-66
2021/04/26 00:32:35;;;;;;;2.53;0.73;;;7.40;53.70;;;;;;4949400;28;20038;-64
2021/04/26 00:35:02;;;;;;;1.88;0.70;;;7.30;53.00;;;;;;4962577;28;20035;-66
2021/04/26 00:37:27;;;;;;;2.35;0.75;;;7.30;52.90;;;;;;4965043;28;20042;-66
2021/04/26 00:39:56;;;;;;;3.88;0.98;;;7.30;52.80;;;;;;4964715;28;20564;-65
2021/04/26 00:42:22;;;;;;;2.15;0.50;;;7.30;53.50;;;;;;4966697;28;20146;-64
2021/04/26 00:44:48;;;;;;;1.17;0.50;;;7.30;52.90;;;;;;4958788;28;20103;-66
2021/04/26 00:47:14;;;;;;;1.40;0.60;;;7.30;53.30;;;;;;4964550;28;20058;-64
2021/04/26 00:49:40;;;;;;;5.47;0.90;;;7.30;52.90;;;;;;4956794;28;20027;-67
2021/04/26 00:52:06;;;;;;;1.85;0.50;;;7.30;52.90;;;;;;4958725;28;20105;-65
2021/04/26 00:54:32;;;;;;;5.95;0.80;;;7.30;52.60;;;;;;4965715;28;20500;-65
2021/04/26 00:57:01;;;;;;;2.60;0.60;;;7.30;52.50;;;;;;4963070;28;20031;-65
2021/04/26 00:59:28;;;;;;;3.28;0.80;;;7.30;52.50;;;;;;4960197;28;20039;-65
2021/04/26 01:01:56;;;;;;;1.70;0.65;;;7.30;52.40;;;;;;4959155;28;20045;-64
2021/04/26 01:04:22;;;;;;;3.47;0.70;;;7.20;52.40;;;;;;4963093;28;20213;-64
2021/04/26 01:06:48;;;;;;;1.17;0.60;;;7.20;53.00;;;;;;4954346;28;21408;-64
2021/04/26 01:09:13;;;;;;;1.77;0.60;;;7.20;53.00;;;;;;4960422;28;20393;-63
2021/04/26 01:12:27;;;;;;;1.52;0.52;;;7.20;52.60;;;;;;4959763;28;20122;-65
2021/04/26 01:15:04;;;;;;;2.25;0.75;;;7.20;52.50;;;;;;4957206;28;20047;-66
2021/04/26 01:17:35;;;;;;;1.30;0.50;;;7.20;52.40;;;;;;4960831;28;20050;-66
2021/04/26 01:20:38;;;;;;;2.25;0.70;;;7.10;52.40;;;;;;4959920;28;20043;-64
2021/04/26 01:23:39;;;;;;;4.28;0.60;;;7.20;52.40;;;;;;4961312;28;20038;-63
2021/04/26 01:26:05;;;;;;;1.20;0.60;;;7.10;52.40;;;;;;4959571;28;20023;-63
2021/04/26 01:28:55;;;;;;;1.95;0.60;;;7.10;52.10;;;;;;4961999;28;20027;-66
2021/04/26 01:31:29;;;;;;;1.90;0.57;;;7.10;52.30;;;;;;4962930;28;20058;-66
2021/04/26 01:33:58;;;;;;;1.73;0.60;;;7.00;52.20;;;;;;4951904;28;20024;-65
2021/04/26 01:36:27;;;;;;;1.58;0.55;;;7.10;52.40;;;;;;4957056;28;20557;-66
2021/04/26 01:38:55;;;;;;;1.05;0.50;;;7.00;52.30;;;;;;4961243;28;20102;-66
2021/04/26 01:41:23;;;;;;;0.80;0.40;;;7.00;52.30;;;;;;4959485;28;20066;-64
2021/04/26 01:43:51;;;;;;;1.75;0.50;;;7.00;52.60;;;;;;4960397;28;20051;-64
2021/04/26 01:46:21;;;;;;;1.85;0.50;;;7.00;52.90;;;;;;4958884;28;20038;-64
2021/04/26 01:48:52;;;;;;;3.03;0.70;;;7.00;53.00;;;;;;4954393;28;20023;-65
2021/04/26 01:51:18;;;;;;;1.83;0.60;;;6.90;52.70;;;;;;4955829;28;20110;-64
2021/04/26 01:53:46;;;;;;;2.03;0.90;;;6.90;52.70;;;;;;4960966;28;20028;-64
2021/04/26 01:56:13;;;;;;;2.30;0.60;;;6.90;53.20;;;;;;4959232;28;20120;-64
2021/04/26 01:58:44;;;;;;;3.15;0.70;;;6.90;53.00;;;;;;4960351;28;20027;-64
2021/04/26 02:01:15;;;;;;;1.42;0.40;;;6.80;53.00;;;;;;4962871;28;20091;-64
2021/04/26 02:03:46;;;;;;;3.20;0.80;;;6.80;53.00;;;;;;4961156;28;20454;-63
2021/04/26 02:06:13;;;;;;;2.20;0.80;;;6.80;53.10;;;;;;4957816;28;20032;-64
2021/04/26 02:08:39;;;;;;;1.10;0.45;;;6.80;52.90;;;;;;4948753;28;20042;-64
2021/04/26 02:11:08;;;;;;;3.08;0.52;;;6.80;53.10;;;;;;4960327;28;20131;-64
2021/04/26 02:13:33;;;;;;;2.92;0.57;;;6.80;53.00;;;;;;4960355;28;20071;-64
2021/04/26 02:16:01;;;;;;;2.45;0.75;;;6.70;53.00;;;;;;4960406;28;20031;-64
2021/04/26 02:18:26;;;;;;;3.50;0.70;;;6.70;53.20;;;;;;4960718;28;20031;-63
2021/04/26 02:20:52;;;;;;;3.97;0.60;;;6.70;53.10;;;;;;4961908;28;20421;-64
2021/04/26 02:23:18;;;;;;;2.25;0.50;;;6.70;53.10;;;;;;4960262;28;20038;-64
2021/04/26 02:25:44;;;;;;;2.20;0.50;;;6.70;53.10;;;;;;4958355;28;20031;-64
2021/04/26 02:28:10;;;;;;;5.22;0.93;;;6.70;53.00;;;;;;4959441;28;20489;-64
2021/04/26 02:30:36;;;;;;;1.02;0.60;;;6.60;52.80;;;;;;4960578;28;20019;-64
2021/04/26 02:33:19;;;;;;;1.27;0.60;;;6.60;52.60;;;;;;4955198;28;20441;-64
2021/04/26 02:35:50;;;;;;;0.90;0.50;;;6.60;52.60;;;;;;4957516;28;20042;-65
2021/04/26 02:38:22;;;;;;;1.55;0.60;;;6.60;52.50;;;;;;4958537;28;20065;-64
2021/04/26 02:41:20;;;;;;;1.70;0.52;;;6.60;52.40;;;;;;4959737;28;20050;-64
2021/04/26 02:43:50;;;;;;;3.58;0.60;;;6.60;52.40;;;;;;4941725;28;20434;-64
2021/04/26 02:46:20;;;;;;;1.58;0.50;;;6.60;52.40;;;;;;4958736;28;20035;-64
2021/04/26 02:48:46;;;;;;;4.68;0.77;;;6.60;52.60;;;;;;4958253;28;20039;-64
2021/04/26 02:51:13;;;;;;;2.63;0.43;;;6.60;52.50;;;;;;4961793;28;20047;-65
2021/04/26 02:53:39;;;;;;;3.17;0.90;;;6.60;52.30;;;;;;4959232;28;20119;-64
2021/04/26 02:56:13;;;;;;;1.35;0.60;;;6.60;52.90;;;;;;4959836;28;20067;-64
2021/04/26 02:58:40;;;;;;;1.52;0.55;;;6.60;52.50;;;;;;4957641;28;20498;-64
2021/04/26 03:01:08;;;;;;;3.35;0.75;;;6.60;52.40;;;;;;4958651;28;20039;-64
2021/04/26 03:03:38;;;;;;;2.45;0.68;;;6.50;52.80;;;;;;4960917;28;19960;-64
2021/04/26 03:06:05;;;;;;;1.13;0.60;;;6.50;53.30;;;;;;4958472;28;20476;-64
2021/04/26 03:08:32;;;;;;;0.77;0.50;;;6.50;53.40;;;;;;4957632;28;20039;-63
2021/04/26 03:10:59;;;;;;;1.83;0.75;;;6.50;53.80;;;;;;4957024;28;20034;-64
2021/04/26 03:13:29;;;;;;;1.25;0.50;;;6.50;53.80;;;;;;4955326;28;20114;-64
2021/04/26 03:15:55;;;;;;;1.90;0.57;;;6.50;53.80;;;;;;4958697;28;20035;-64
2021/04/26 03:18:23;;;;;;;0.90;0.70;;;6.50;53.90;;;;;;4959057;28;20027;-64
2021/04/26 03:20:49;;;;;;;1.67;0.73;;;6.50;54.40;;;;;;4956246;28;20031;-64
2021/04/26 03:23:26;;;;;;;2.67;0.90;;;6.40;54.90;;;;;;4958348;28;20069;-64
2021/04/26 03:25:56;;;;;;;4.82;1.42;;;6.40;55.50;;;;;;4959028;28;20067;-64
2021/04/26 03:28:23;;;;;;;1.92;0.77;;;6.40;55.60;;;;;;4957489;28;20026;-64
2021/04/26 03:30:51;;;;;;;5.22;1.20;;;6.40;55.90;;;;;;4956008;28;20043;-64
2021/04/26 03:33:17;;;;;;;1.63;0.80;;;6.40;55.80;;;;;;4959642;28;20099;-64
2021/04/26 03:35:44;;;;;;;5.70;0.90;;;6.40;56.30;;;;;;4960520;28;20357;-64
2021/04/26 03:38:11;;;;;;;3.20;0.80;;;6.40;56.70;;;;;;4958663;28;20121;-64
2021/04/26 03:40:37;;;;;;;5.38;0.93;;;6.40;56.70;;;;;;4957711;28;20035;-64
2021/04/26 03:43:03;;;;;;;2.53;1.08;;;6.40;56.80;;;;;;4955794;28;20035;-64
2021/04/26 03:45:29;;;;;;;4.88;0.88;;;6.40;57.20;;;;;;4950322;28;20082;-64
2021/04/26 03:47:55;;;;;;;3.72;0.80;;;6.40;57.90;;;;;;4958707;28;20059;-64
2021/04/26 03:50:26;;;;;;;3.80;0.88;;;6.40;57.70;;;;;;4959754;28;20042;-64
2021/04/26 03:52:52;;;;;;;4.47;1.10;;;6.50;57.50;;;;;;4959555;28;20050;-64
2021/04/26 03:55:21;;;;;;;4.13;1.20;;;6.40;57.80;;;;;;4959362;28;20031;-63
2021/04/26 03:57:47;;;;;;;4.85;1.10;;;6.40;58.40;;;;;;4960142;28;20031;-63
2021/04/26 04:00:15;;;;;;;3.58;1.13;;;6.40;57.90;;;;;;4951623;28;20038;-64
2021/04/26 04:02:41;;;;;;;2.42;1.08;;;6.40;57.70;;;;;;4953894;28;20031;-63
2021/04/26 04:05:07;;;;;;;2.70;0.93;;;6.40;57.70;;;;;;4957697;28;20027;-64
2021/04/26 04:07:34;;;;;;;2.88;1.08;;;6.40;57.50;;;;;;4955611;28;20042;-64
2021/04/26 04:10:01;;;;;;;4.10;1.38;;;6.40;58.00;;;;;;4959421;28;20102;-64
2021/04/26 04:12:27;;;;;;;4.00;1.40;;;6.40;58.20;;;;;;4959534;28;20023;-64
2021/04/26 04:14:52;;;;;;;5.10;1.70;;;6.40;58.70;;;;;;4956307;28;20046;-64
2021/04/26 04:17:18;;;;;;;4.40;1.60;;;6.40;58.70;;;;;;4955280;28;20039;-64
2021/04/26 04:19:44;;;;;;;7.07;2.40;;;6.40;58.90;;;;;;4948718;28;20113;-65
2021/04/26 04:22:09;;;;;;;5.35;1.85;;;6.40;59.30;;;;;;4956570;28;20036;-64
2021/04/26 04:24:38;;;;;;;4.40;1.63;;;6.30;59.00;;;;;;4958291;28;20035;-64
2021/04/26 04:27:04;;;;;;;4.55;1.80;;;6.30;58.80;;;;;;4958661;28;21598;-65
2021/04/26 04:29:29;;;;;;;5.95;1.85;;;6.30;58.90;;;;;;4958919;28;20034;-65
2021/04/26 04:31:55;;;;;;;8.73;2.55;;;6.30;58.90;;;;;;4957998;28;20523;-64
2021/04/26 04:34:21;;;;;;;6.60;1.77;;;6.40;58.90;;;;;;4957968;28;20694;-65
2021/04/26 04:36:47;;;;;;;7.30;2.20;;;6.40;58.60;;;;;;4955724;28;20026;-64
2021/04/26 04:39:12;;;;;;;8.35;2.17;;;6.40;58.80;;;;;;4961509;28;20045;-64
2021/04/26 04:41:38;;;;;;;6.57;2.20;;;6.40;59.00;;;;;;4956079;28;20113;-65
2021/04/26 04:44:05;;;;;;;4.40;1.75;;;6.40;58.70;;;;;;4952757;28;20039;-64
2021/04/26 04:46:30;;;;;;;4.28;2.00;;;6.40;58.40;;;;;;4955432;28;20552;-64
2021/04/26 04:48:57;;;;;;;8.10;2.45;;;6.30;58.30;;;;;;4955430;28;20110;-64
2021/04/26 04:51:23;;;;;;;4.00;1.58;;;6.30;58.90;;;;;;4951966;28;20063;-65
2021/04/26 04:53:48;;;;;;;4.85;1.30;;;6.30;57.90;;;;;;4954236;28;20058;-65
2021/04/26 04:56:14;;;;;;;4.85;1.42;;;6.40;57.60;;;;;;4954568;28;20039;-65
2021/04/26 04:58:40;;;;;;;3.85;1.10;;;6.30;56.90;;;;;;4955576;28;20027;-64
2021/04/26 05:01:06;;;;;;;9.43;1.90;;;6.30;56.90;;;;;;4945180;28;20028;-65
2021/04/26 05:03:32;;;;;;;1.85;1.20;;;6.40;56.70;;;;;;4955015;28;20035;-65
2021/04/26 05:05:57;;;;;;;3.40;1.05;;;6.40;56.30;;;;;;4955864;28;20026;-65
2021/04/26 05:08:23;;;;;;;1.92;0.98;;;6.40;56.30;;;;;;4953513;28;20051;-64
2021/04/26 05:10:49;;;;;;;2.70;1.30;;;6.40;55.80;;;;;;4958085;28;20030;-64
2021/04/26 05:13:15;;;;;;;4.20;0.93;;;6.40;55.40;;;;;;4976191;28;20031;-69
2021/04/26 05:15:41;;;;;;;5.60;1.00;;;6.40;55.30;;;;;;4956753;28;20045;-64
2021/04/26 05:18:08;;;;;;;6.25;1.40;;;6.40;55.20;;;;;;4949681;28;20395;-63
2021/04/26 05:20:34;;;;;;;2.40;1.00;;;6.40;55.00;;;;;;4957818;28;20101;-63
2021/04/26 05:23:00;;;;;;;3.22;1.20;;;6.40;55.30;;;;;;4956730;28;20035;-64
2021/04/26 05:25:26;;;;;;;3.47;1.33;;;6.30;55.00;;;;;;4957492;28;20039;-64
2021/04/26 05:27:52;;;;;;;4.13;1.10;;;6.30;54.90;;;;;;4959887;28;20109;-64
2021/04/26 05:30:18;;;;;;;2.47;0.80;;;6.30;54.70;;;;;;4962191;28;20030;-67
2021/04/26 05:32:44;;;;;;;4.88;0.95;;;6.20;54.60;;;;;;4954543;28;20039;-73
2021/04/26 05:35:10;;;;;;;3.90;1.02;;;6.20;54.70;;;;;;4956430;28;20196;-65
2021/04/26 05:37:36;;;;;;;2.47;0.90;;;6.20;54.90;;;;;;4958025;28;20490;-63
2021/04/26 05:40:02;;;;;;;2.88;0.85;;;6.20;54.70;;;;;;4958822;28;20058;-63
2021/04/26 05:42:28;;;;;;;2.83;1.20;;;6.30;54.60;;;;;;4959001;28;20031;-64
2021/04/26 05:44:54;;;;;;;2.53;1.00;;;6.30;54.70;;;;;;4953302;28;20127;-64
2021/04/26 05:47:19;;;;;;;3.28;1.08;;;6.30;54.50;;;;;;4959608;28;20432;-64
2021/04/26 05:49:45;;;;;;;3.10;0.93;;;6.40;54.30;;;;;;4959471;28;20472;-64
2021/04/26 05:52:11;;;;;;;4.93;1.27;;;6.40;54.20;;;;;;4962286;28;20054;-63
2021/04/26 05:54:37;;;;;;;3.22;1.02;;;6.50;53.90;;;;;;4958628;28;20066;-64
2021/04/26 05:57:03;;;;;;;1.58;1.08;;;6.50;53.70;;;;;;4953730;28;20528;-64
2021/04/26 05:59:29;;;;;;;2.53;1.00;;;6.60;53.60;;;;;;4951898;28;20040;-64
2021/04/26 06:01:54;;;;;;;6.55;1.17;;;6.60;53.50;;;;;;4957026;28;20038;-65
2021/04/26 06:04:20;;;;;;;4.85;1.50;;;6.60;53.50;;;;;;4961967;28;20024;-66
2021/04/26 06:06:46;;;;;;;5.90;1.33;;;6.70;53.50;;;;;;4952962;28;20040;-73
2021/04/26 06:09:12;;;;;;;3.47;1.40;;;6.70;53.70;;;;;;4957585;28;20027;-65
2021/04/26 06:11:37;;;;;;;4.90;1.80;;;6.70;53.40;;;;;;4958737;28;20042;-67
2021/04/26 06:14:03;;;;;;;5.60;1.48;;;6.80;53.40;;;;;;4954807;28;20035;-64
2021/04/26 06:16:29;;;;;;;3.83;1.60;;;6.80;53.30;;;;;;4956946;28;20073;-64
2021/04/26 06:18:54;;;;;;;5.47;1.40;;;6.80;53.10;;;;;;4954190;28;20405;-64
2021/04/26 06:21:20;;;;;;;3.70;1.40;;;6.90;53.00;;;;;;4955225;28;20035;-64
2021/04/26 06:23:48;;;;;;;3.17;1.23;;;6.90;52.40;;;;;;4958151;28;20015;-64
2021/04/26 06:26:14;;;;;;;2.15;1.08;;;6.90;52.30;;;;;;4953356;28;20031;-64
2021/04/26 06:28:40;;;;;;;5.30;1.20;;;6.90;52.30;;;;;;4958940;28;20376;-64
2021/04/26 06:31:05;;;;;;;3.53;1.20;;;6.90;52.20;;;;;;4954143;28;20460;-68
2021/04/26 06:33:31;;;;;;;3.63;1.33;;;7.00;52.20;;;;;;4956938;28;20031;-68
2021/04/26 06:35:57;;;;;;;3.60;1.10;;;7.00;52.30;;;;;;4956851;28;20481;-69
2021/04/26 06:38:23;;;;;;;4.63;1.17;;;7.00;51.70;;;;;;4957773;28;20378;-70
2021/04/26 06:40:49;;;;;;;2.80;1.13;;;7.00;51.20;;;;;;4957737;28;20047;-70
2021/04/26 06:43:16;;;;;;;6.80;1.08;;;7.10;50.60;;;;;;4954776;28;20051;-70
2021/04/26 06:45:43;;;;;;;3.00;0.82;;;7.10;50.20;;;;;;4955486;28;20118;-72
2021/04/26 06:48:12;;;;;;;5.70;1.33;;;7.10;50.10;;;;;;4957597;28;20492;-70
2021/04/26 06:50:38;;;;;;;2.35;1.02;;;7.10;50.20;;;;;;4956684;28;20031;-71
2021/04/26 06:53:04;;;;;;;1.83;0.68;;;7.10;50.00;;;;;;4957573;28;20035;-71
2021/04/26 06:55:31;;;;;;;5.15;1.02;;;7.10;49.70;;;;;;4953214;28;20027;-70
2021/04/26 06:57:58;;;;;;;3.47;0.90;;;7.10;49.50;;;;;;4956193;28;20031;-72
2021/04/26 07:00:24;;;;;;;3.70;1.05;;;7.20;49.60;;;;;;4955782;28;20055;-72
2021/04/26 07:02:50;;;;;;;4.53;1.27;;;7.20;49.60;;;;;;4950871;28;20121;-72
2021/04/26 07:05:19;;;;;;;3.70;1.30;;;7.20;49.30;;;;;;4954555;28;20027;-72
2021/04/26 07:07:46;;;;;;;5.72;1.10;;;7.20;49.50;;;;;;4952102;28;20026;-72
2021/04/26 07:10:12;;;;;;;2.03;0.82;;;7.20;49.10;;;;;;4953961;28;20046;-71
2021/04/26 07:12:38;;;;;;;3.10;0.85;;;7.20;49.10;;;;;;4956070;28;20050;-72
2021/04/26 07:15:06;;;;;;;2.55;0.93;;;7.20;48.60;;;;;;4951669;28;20105;-73
2021/04/26 07:17:34;;;;;;;2.03;0.80;;;7.20;48.70;;;;;;4956733;28;20064;-72
2021/04/26 07:20:09;;;;;;;2.22;0.70;;;7.20;48.80;;;;;;4958078;28;20039;-72
2021/04/26 07:22:40;;;;;;;5.07;0.70;;;7.20;48.30;;;;;;4948293;28;20035;-71
2021/04/26 07:25:06;;;;;;;1.38;0.60;;;7.30;48.60;;;;;;4946659;28;20054;-66
2021/04/26 07:27:32;;;;;;;3.05;0.70;;;7.30;48.60;;;;;;4948887;28;20477;-65
2021/04/26 07:29:58;;;;;;;2.28;0.70;;;7.40;48.60;;;;;;4956194;28;20023;-66
2021/04/26 07:32:25;;;;;;;1.92;0.63;;;7.40;48.40;;;;;;4958905;28;20516;-66
2021/04/26 07:34:51;;;;;;;3.65;0.80;;;7.50;48.30;;;;;;4957613;28;20527;-66
2021/04/26 07:37:18;;;;;;;2.45;0.70;;;7.60;48.00;;;;;;4954533;28;20509;-65
2021/04/26 07:39:44;;;;;;;2.28;0.80;;;7.70;47.10;;;;;;4954975;28;20125;-66
2021/04/26 07:42:13;;;;;;;1.70;0.80;;;7.70;47.40;;;;;;4996781;23;20043;-66
2021/04/26 07:44:42;;;;;;;1.42;0.55;;;7.80;47.50;;;;;;4961987;28;20231;-66
2021/04/26 07:47:09;;;;;;;4.95;0.82;;;7.80;46.90;;;;;;4977709;28;20050;-66
2021/04/26 07:49:35;;;;;;;3.15;0.75;;;7.80;47.10;;;;;;4980799;28;20034;-66
2021/04/26 07:52:01;;;;;;;2.72;0.68;;;7.80;47.60;;;;;;4964854;28;20546;-66
2021/04/26 07:54:27;;;;;;;2.80;1.10;;;7.80;47.30;;;;;;4952136;28;20027;-67
2021/04/26 07:56:54;;;;;;;5.68;0.80;;;7.80;46.90;;;;;;4957290;28;20501;-66
2021/04/26 07:59:20;;;;;;;3.70;1.00;;;7.80;46.70;;;;;;4961629;28;20043;-66
2021/04/26 08:01:47;;;;;;;2.65;0.70;;;7.80;48.70;;;;;;4957264;28;20050;-66
2021/04/26 08:04:13;;;;;;;3.20;0.70;;;7.90;46.60;;;;;;4957254;28;20092;-66
2021/04/26 08:06:40;;;;;;;4.20;0.90;;;7.90;46.40;;;;;;4951286;28;20028;-66
2021/04/26 08:09:07;;;;;;;5.47;0.88;;;7.90;46.70;;;;;;4957703;28;20034;-66
2021/04/26 08:11:33;;;;;;;3.25;1.02;;;7.90;46.80;;;;;;4957515;28;20026;-66
2021/04/26 08:13:59;;;;;;;3.78;0.50;;;7.90;46.80;;;;;;4957700;28;20042;-67
2021/04/26 08:16:25;;;;;;;3.13;0.57;;;7.90;46.50;;;;;;4960922;28;20023;-67
2021/04/26 08:18:51;;;;;;;3.35;0.98;;;7.90;46.30;;;;;;4958627;28;20073;-66
2021/04/26 08:21:17;;;;;;;2.83;0.80;;;8.00;47.40;;;;;;4958932;28;20062;-66
2021/04/26 08:23:43;;;;;;;3.70;0.90;;;8.00;45.70;;;;;;4961451;28;20031;-66
2021/04/26 08:26:10;;;;;;;5.07;0.77;;;8.00;46.20;;;;;;4955040;28;20409;-67
2021/04/26 08:28:37;;;;;;;5.97;0.70;;;8.10;45.40;;;;;;4957672;28;20031;-66
2021/04/26 08:31:06;;;;;;;4.93;1.00;;;8.10;45.30;;;;;;4960022;28;20038;-67
2021/04/26 08:33:32;;;;;;;4.07;1.50;;;8.20;45.30;;;;;;4956641;28;20497;-66
2021/04/26 08:35:58;;;;;;;2.75;0.90;;;8.30;45.10;;;;;;4959039;28;20046;-68
2021/04/26 08:38:24;;;;;;;3.42;0.80;;;8.40;44.40;;;;;;4957481;28;20070;-67
2021/04/26 08:40:50;;;;;;;2.50;0.60;;;8.50;44.10;;;;;;4958099;28;20648;-67
2021/04/26 08:43:16;;;;;;;2.97;1.27;;;8.50;44.20;;;;;;4959274;28;20050;-67
2021/04/26 08:45:42;;;;;;;4.05;0.90;;;8.60;44.80;;;;;;4960605;28;20476;-67
2021/04/26 08:48:08;;;;;;;2.35;0.80;;;8.60;44.90;;;;;;4963900;28;20042;-67
2021/04/26 08:50:34;;;;;;;3.00;1.02;;;8.70;44.50;;;;;;4961116;28;20038;-67
2021/04/26 08:53:00;;;;;;;2.75;0.90;;;8.70;44.40;;;;;;4960839;28;20042;-67
2021/04/26 08:55:26;;;;;;;4.10;0.90;;;8.80;44.30;;;;;;4963703;28;20026;-67
2021/04/26 08:57:53;;;;;;;2.75;1.02;;;8.80;44.70;;;;;;4963034;28;20106;-67
2021/04/26 09:00:21;;;;;;;4.30;1.60;;;8.90;44.40;;;;;;4958845;28;20031;-66
2021/04/26 09:02:57;;;;;;;3.85;0.70;;;9.00;44.80;;;;;;4964808;28;20492;-67
2021/04/26 09:05:35;;;;;;;4.47;1.40;;;9.10;44.30;;;;;;4962597;28;20090;-67
2021/04/26 09:08:04;;;;;;;4.22;0.90;;;9.20;43.50;;;;;;4962582;28;20066;-67
2021/04/26 09:10:44;;;;;;;2.40;0.90;;;9.20;44.20;;;;;;4962898;28;20054;-67
2021/04/26 09:13:31;;;;;;;2.23;0.80;;;9.30;44.20;;;;;;4964179;28;20043;-67
2021/04/26 09:16:03;;;;;;;2.38;0.77;;;9.50;43.70;;;;;;4959653;28;20034;-67
2021/04/26 09:18:54;;;;;;;2.33;0.98;;;9.60;43.30;;;;;;4960272;28;20115;-67
2021/04/26 09:21:26;;;;;;;2.05;0.80;;;9.70;43.00;;;;;;4963605;28;20038;-66
2021/04/26 09:24:11;;;;;;;2.33;1.00;;;9.70;41.70;;;;;;4968086;28;20036;-67
2021/04/26 09:26:37;;;;;;;2.22;0.80;;;9.70;41.60;;;;;;4962555;28;20035;-66
2021/04/26 09:29:13;;;;;;;1.90;0.90;;;9.70;40.90;;;;;;4963589;28;20027;-67
2021/04/26 09:31:39;;;;;;;4.47;1.10;;;9.60;41.20;;;;;;4961291;28;20108;-67
2021/04/26 09:34:06;;;;;;;5.45;1.00;;;9.60;41.80;;;;;;4957869;28;20042;-67
2021/04/26 09:36:33;;;;;;;1.98;0.90;;;9.60;41.70;;;;;;4963409;28;20389;-67
2021/04/26 09:39:03;;;;;;;2.00;0.95;;;9.70;41.70;;;;;;4961557;28;20054;-67
2021/04/26 09:41:34;;;;;;;5.60;1.67;;;9.80;41.40;;;;;;4962792;28;20043;-67
2021/04/26 09:44:00;;;;;;;2.70;0.80;;;9.90;40.80;;;;;;4957987;28;20042;-67
2021/04/26 09:46:46;;;;;;;2.38;0.93;;;10.00;41.20;;;;;;4959873;28;20449;-67
2021/04/26 09:49:23;;;;;;;2.45;0.95;;;10.00;40.80;;;;;;4964328;28;20030;-67
2021/04/26 09:51:58;;;;;;;2.97;1.10;;;10.10;39.50;;;;;;4959993;28;20038;-67
2021/04/26 09:54:54;;;;;;;5.03;1.40;;;10.20;40.20;;;;;;4964257;28;20381;-67
2021/04/26 09:57:20;;;;;;;2.53;0.93;;;10.30;40.20;;;;;;4960209;28;20047;-66
2021/04/26 09:59:49;;;;;;;2.00;1.10;;;10.40;40.50;;;;;;4962177;28;20101;-67
2021/04/26 10:02:15;;;;;;;2.72;1.20;;;10.50;40.20;;;;;;4961936;28;20034;-67
2021/04/26 10:04:43;;;;;;;3.05;0.90;;;10.70;40.00;;;;;;4955247;28;20045;-67
2021/04/26 10:07:08;;;;;;;2.80;1.05;;;10.90;40.50;;;;;;4961525;28;20057;-68
2021/04/26 10:09:34;;;;;;;5.30;1.13;;;11.00;39.40;;;;;;4960115;28;20062;-68
2021/04/26 10:12:02;;;;;;;1.83;0.80;;;11.00;37.80;;;;;;4961921;28;20500;-68
2021/04/26 10:14:27;;;;;;;3.53;0.93;;;10.90;38.60;;;;;;4961987;28;20031;-67
2021/04/26 10:17:02;;;;;;;1.58;1.05;;;11.10;38.20;;;;;;4964781;28;20278;-67
2021/04/26 10:19:29;;;;;;;3.47;1.30;;;11.20;38.40;;;;;;4960770;28;20030;-65
2021/04/26 10:21:57;;;;;;;2.83;1.00;;;11.40;38.00;;;;;;4956144;28;20066;-66
2021/04/26 10:24:25;;;;;;;1.83;1.10;;;11.30;36.70;;;;;;4958742;28;20024;-67
2021/04/26 10:26:52;;;;;;;2.22;1.13;;;11.30;36.50;;;;;;4961815;28;20066;-66
2021/04/26 10:29:40;;;;;;;1.42;0.88;;;11.30;37.30;;;;;;4960245;28;20515;-66
2021/04/26 10:32:05;;;;;;;2.85;1.08;;;11.30;38.00;;;;;;4961435;28;20090;-65
2021/04/26 10:34:43;;;;;;;3.55;1.00;;;11.30;37.70;;;;;;4962518;28;20032;-66
2021/04/26 10:37:15;;;;;;;2.55;1.00;;;11.30;37.70;;;;;;4961288;28;20042;-67
2021/04/26 10:40:05;;;;;;;3.08;1.10;;;11.30;37.90;;;;;;4960805;28;20031;-66
2021/04/26 10:42:35;;;;;;;2.40;1.10;;;11.20;37.30;;;;;;4957598;28;20054;-65
2021/04/26 10:45:24;;;;;;;1.40;0.90;;;11.00;37.70;;;;;;4960079;28;20549;-68
2021/04/26 10:48:04;;;;;;;2.40;1.10;;;10.90;37.90;;;;;;4962156;28;20424;-66
2021/04/26 10:50:34;;;;;;;3.67;1.33;;;10.80;37.30;;;;;;4963728;28;20054;-68
2021/04/26 10:53:01;;;;;;;1.80;0.95;;;10.80;37.20;;;;;;4959835;28;20228;-68
2021/04/26 10:55:26;;;;;;;3.17;1.30;;;10.90;37.70;;;;;;4961199;28;20113;-68
2021/04/26 10:58:05;;;;;;;3.50;1.20;;;10.90;37.60;;;;;;4959294;28;20496;-67
2021/04/26 11:00:36;;;;;;;6.05;2.67;;;10.90;37.80;;;;;;4958981;28;20027;-67
2021/04/26 11:03:05;;;;;;;3.50;2.08;;;10.90;38.20;;;;;;4960036;28;20038;-67
2021/04/26 11:05:44;;;;;;;3.60;2.08;;;10.90;38.00;;;;;;4956964;28;20033;-74
2021/04/26 11:08:35;;;;;;;2.72;1.48;;;10.90;38.30;;;;;;4973342;28;20572;-68
2021/04/26 11:11:11;;;;;;;2.53;1.27;;;11.00;38.60;;;;;;4957392;28;20031;-68
2021/04/26 11:13:43;;;;;;;3.50;1.58;;;11.20;38.10;;;;;;4960433;28;20054;-68
2021/04/26 11:16:12;;;;;;;3.00;1.13;;;11.60;37.80;;;;;;4962987;28;20031;-69
2021/04/26 11:18:59;;;;;;;2.97;1.33;;;12.60;38.30;;;;;;4960239;28;20031;-68
2021/04/26 11:21:43;;;;;;;2.63;1.25;;;13.20;33.60;;;;;;4958587;28;20070;-69
2021/04/26 11:24:10;;;;;;;4.53;0.95;;;13.00;33.20;;;;;;4960102;28;20057;-69
2021/04/26 11:26:36;;;;;;;4.28;1.23;;;12.90;33.90;;;;;;4955054;28;20385;-69
2021/04/26 11:29:02;;;;;;;1.63;1.00;;;12.90;34.20;;;;;;4955706;28;20436;-68
2021/04/26 11:31:43;;;;;;;2.72;1.10;;;13.00;33.50;;;;;;4957572;28;20027;-68
2021/04/26 11:34:18;;;;;;;2.78;1.40;;;13.00;34.20;;;;;;4959696;28;20039;-68
2021/04/26 11:37:02;;;;;;;3.55;1.10;;;12.90;33.00;;;;;;4959057;28;20507;-69
2021/04/26 11:39:33;;;;;;;2.25;1.30;;;13.00;34.80;;;;;;4958851;28;20215;-69
2021/04/26 11:42:01;;;;;;;6.07;1.70;;;13.60;35.30;;;;;;4958341;28;20061;-68
2021/04/26 11:44:31;;;;;;;1.80;1.30;;;14.00;33.00;;;;;;4960342;28;20022;-68
2021/04/26 11:47:06;;;;;;;2.65;1.13;;;14.50;34.00;;;;;;4958000;28;20456;-69
2021/04/26 11:49:36;;;;;;;4.03;1.48;;;15.10;33.10;;;;;;4959114;28;20408;-69
2021/04/26 11:52:15;;;;;;;2.17;1.47;;;15.60;31.90;;;;;;4959327;28;20022;-68
2021/04/26 11:54:46;;;;;;;5.90;1.10;;;15.80;30.30;;;;;;4956342;28;20287;-68
2021/04/26 11:57:20;;;;;;;3.22;1.55;;;15.70;30.90;;;;;;4955824;28;20878;-69
2021/04/26 11:59:57;;;;;;;1.27;1.00;;;15.70;31.50;;;;;;4960341;28;20031;-69
2021/04/26 12:02:39;;;;;;;2.22;1.02;;;15.60;31.20;;;;;;4957374;28;20532;-68
2021/04/26 12:05:20;;;;;;;1.90;1.30;;;15.40;30.00;;;;;;4959232;28;20393;-70
2021/04/26 12:07:46;;;;;;;2.10;0.85;;;14.90;30.90;;;;;;4960141;28;20086;-69
2021/04/26 12:10:17;;;;;;;2.17;1.27;;;14.60;30.70;;;;;;4959493;28;20059;-69
2021/04/26 12:12:43;;;;;;;3.83;1.33;;;14.30;31.10;;;;;;4956961;28;20463;-69
2021/04/26 12:15:21;;;;;;;3.35;1.17;;;13.90;30.30;;;;;;4957194;28;20473;-68
2021/04/26 12:17:57;;;;;;;1.95;1.10;;;13.60;30.50;;;;;;4961302;28;20452;-67
2021/04/26 12:20:25;;;;;;;1.90;1.10;;;13.30;29.90;;;;;;4958536;28;20424;-68
2021/04/26 12:22:57;;;;;;;2.40;1.42;;;13.00;31.20;;;;;;4958277;28;20054;-67
2021/04/26 12:25:27;;;;;;;2.85;1.40;;;12.80;31.00;;;;;;4959240;28;20034;-68
2021/04/26 12:28:04;;;;;;;4.45;1.38;;;12.80;31.80;;;;;;4959412;28;20059;-68
2021/04/26 12:30:39;;;;;;;2.08;1.17;;;12.70;31.40;;;;;;4964708;28;20032;-68
2021/04/26 12:33:19;;;;;;;2.03;1.15;;;12.70;32.10;;;;;;4959434;28;20062;-67
2021/04/26 12:35:46;;;;;;;3.33;1.40;;;12.80;31.10;;;;;;4967050;28;20031;-68
2021/04/26 12:38:13;;;;;;;2.88;1.20;;;12.80;30.60;;;;;;4960776;28;20376;-67
2021/04/26 12:40:39;;;;;;;2.70;1.20;;;12.70;30.90;;;;;;4963251;28;20389;-67
2021/04/26 12:43:08;;;;;;;3.05;1.00;;;12.70;30.00;;;;;;4963562;28;20035;-68
2021/04/26 12:45:49;;;;;;;2.75;1.52;;;12.60;30.90;;;;;;4953443;28;20117;-68
2021/04/26 12:48:19;;;;;;;5.25;1.20;;;12.50;31.30;;;;;;4962487;28;20082;-68
2021/04/26 12:50:50;;;;;;;4.50;1.23;;;12.50;32.00;;;;;;4962502;28;20027;-67
2021/04/26 12:53:16;;;;;;;2.17;1.10;;;12.50;31.60;;;;;;4962211;28;20041;-68
2021/04/26 12:55:47;;;;;;;2.08;1.17;;;12.50;33.60;;;;;;4963354;28;20031;-68
2021/04/26 12:58:19;;;;;;;;;;;13.20;35.40;;;;;;4962579;28;20041;-70
2021/04/26 13:00:53;;;;;;;2.42;1.23;;;13.80;32.90;;;;;;4957832;28;19918;-69
2021/04/26 13:03:26;;;;;;;2.55;1.40;;;14.00;32.80;;;;;;4954973;28;20091;-69
2021/04/26 13:05:54;;;;;;;2.83;1.30;;;14.00;31.00;;;;;;4960200;28;20039;-69